AHY0770 UBBB-UBBG
Flight info
| Callsign | AHY0770 |
|---|---|
| Flight time | 0h 33m |
| Altitude | 22000 |
| Route | RASAM DCT EDATA |
| Aircraft | A21N/M-SDE2E3FGHIRWXY/LB1 |
Departure
| Time | 2026-04-25 16:14 |
|---|---|
| Airport | Heydar Aliyev International Airport (UBBB) |
Arrival
| Time | 2026-04-25 16:47 |
|---|---|
| Airport | Ganja International Airport (UBBG) |
| Time | Latitude | Longitude | Altitude | Speed | Heading |
|---|---|---|---|---|---|
| 2026-04-25 15:18 | 40.46733 | 50.05287 | 0 ft | 0 kts | 222° |
| 2026-04-25 16:00 | 40.46737 | 50.05292 | 0 ft | 3 kts | 222° |
| 2026-04-25 16:01 | 40.46751 | 50.05309 | 0 ft | 3 kts | 222° |
| 2026-04-25 16:01 | 40.46765 | 50.05325 | 0 ft | 3 kts | 222° |
| 2026-04-25 16:01 | 40.46778 | 50.05343 | 0 ft | 3 kts | 257° |
| 2026-04-25 16:01 | 40.46779 | 50.05367 | 0 ft | 3 kts | 277° |
| 2026-04-25 16:02 | 40.46775 | 50.05390 | 0 ft | 3 kts | 287° |
| 2026-04-25 16:02 | 40.46765 | 50.05409 | -1 ft | 1 kts | 340° |
| 2026-04-25 16:07 | 40.46788 | 50.05400 | 0 ft | 9 kts | 342° |
| 2026-04-25 16:07 | 40.46872 | 50.05384 | 0 ft | 15 kts | 358° |
| 2026-04-25 16:08 | 40.46932 | 50.05311 | 1 ft | 14 kts | 282° |
| 2026-04-25 16:08 | 40.46925 | 50.05157 | 1 ft | 20 kts | 268° |
| 2026-04-25 16:08 | 40.46920 | 50.04941 | 2 ft | 27 kts | 268° |
| 2026-04-25 16:08 | 40.46914 | 50.04667 | 3 ft | 33 kts | 268° |
| 2026-04-25 16:09 | 40.46901 | 50.04347 | 3 ft | 37 kts | 256° |
| 2026-04-25 16:09 | 40.46837 | 50.04011 | 3 ft | 36 kts | 256° |
| 2026-04-25 16:09 | 40.46766 | 50.03779 | 1 ft | 17 kts | 204° |
| 2026-04-25 16:09 | 40.46661 | 50.03804 | 3 ft | 18 kts | 163° |
| 2026-04-25 16:10 | 40.46515 | 50.03852 | 3 ft | 25 kts | 167° |
| 2026-04-25 16:10 | 40.46326 | 50.03907 | 6 ft | 30 kts | 167° |
| 2026-04-25 16:10 | 40.46105 | 50.03975 | 11 ft | 35 kts | 166° |
| 2026-04-25 16:10 | 40.45861 | 50.04048 | 11 ft | 37 kts | 178° |
| 2026-04-25 16:11 | 40.45656 | 50.04024 | 13 ft | 21 kts | 175° |
| 2026-04-25 16:11 | 40.45583 | 50.04104 | 12 ft | 9 kts | 87° |
| 2026-04-25 16:11 | 40.45621 | 50.04143 | 12 ft | 8 kts | 357° |
| 2026-04-25 16:11 | 40.45692 | 50.04102 | 12 ft | 15 kts | 334° |
| 2026-04-25 16:12 | 40.45813 | 50.04062 | 12 ft | 20 kts | 351° |
| 2026-04-25 16:12 | 40.45839 | 50.04056 | 12 ft | 0 kts | 347° |
| 2026-04-25 16:13 | 40.45853 | 50.04052 | 11 ft | 10 kts | 347° |
| 2026-04-25 16:13 | 40.46035 | 50.03997 | 12 ft | 46 kts | 347° |
| 2026-04-25 16:13 | 40.46584 | 50.03825 | 3 ft | 119 kts | 346° |
| 2026-04-25 16:13 | 40.47613 | 50.03500 | 87 ft | 177 kts | 348° |
| 2026-04-25 16:14 | 40.48871 | 50.03145 | 631 ft | 193 kts | 348° |
| 2026-04-25 16:14 | 40.50233 | 50.02795 | 1285 ft | 206 kts | 348° |
| 2026-04-25 16:14 | 40.51700 | 50.02429 | 1880 ft | 224 kts | 348° |
| 2026-04-25 16:14 | 40.53273 | 50.01927 | 2562 ft | 239 kts | 344° |
| 2026-04-25 16:15 | 40.54888 | 50.01348 | 3308 ft | 243 kts | 344° |
| 2026-04-25 16:15 | 40.56540 | 50.00773 | 3983 ft | 248 kts | 345° |
| 2026-04-25 16:15 | 40.58220 | 50.00212 | 4721 ft | 250 kts | 345° |
| 2026-04-25 16:15 | 40.59872 | 49.99471 | 5472 ft | 253 kts | 332° |
| 2026-04-25 16:16 | 40.61220 | 49.97994 | 6165 ft | 255 kts | 306° |
| 2026-04-25 16:16 | 40.61897 | 49.95887 | 6824 ft | 257 kts | 279° |
| 2026-04-25 16:16 | 40.62011 | 49.93531 | 7456 ft | 259 kts | 270° |
| 2026-04-25 16:16 | 40.61988 | 49.91150 | 7779 ft | 261 kts | 269° |
| 2026-04-25 16:17 | 40.61947 | 49.88754 | 7799 ft | 263 kts | 269° |
| 2026-04-25 16:17 | 40.61914 | 49.86346 | 7779 ft | 264 kts | 269° |
| 2026-04-25 16:17 | 40.61889 | 49.83928 | 7788 ft | 264 kts | 269° |
| 2026-04-25 16:17 | 40.61869 | 49.81506 | 7776 ft | 264 kts | 269° |
| 2026-04-25 16:18 | 40.61851 | 49.79090 | 7789 ft | 264 kts | 269° |
| 2026-04-25 16:18 | 40.61846 | 49.78303 | 7780 ft | 264 kts | 269° |
| 2026-04-25 16:18 | 40.61815 | 49.74276 | 8009 ft | 266 kts | 269° |
| 2026-04-25 16:18 | 40.61795 | 49.71787 | 8517 ft | 278 kts | 269° |
| 2026-04-25 16:19 | 40.61774 | 49.69225 | 9272 ft | 281 kts | 269° |
| 2026-04-25 16:19 | 40.61752 | 49.66637 | 10042 ft | 286 kts | 269° |
| 2026-04-25 16:19 | 40.61728 | 49.63943 | 10439 ft | 305 kts | 269° |
| 2026-04-25 16:20 | 40.61675 | 49.58013 | 11150 ft | 340 kts | 269° |
| 2026-04-25 16:20 | 40.61645 | 49.54856 | 11759 ft | 348 kts | 269° |
| 2026-04-25 16:20 | 40.61582 | 49.48442 | 13153 ft | 357 kts | 269° |
| 2026-04-25 16:21 | 40.61548 | 49.45162 | 13852 ft | 361 kts | 269° |
| 2026-04-25 16:21 | 40.61513 | 49.41839 | 14523 ft | 365 kts | 269° |
| 2026-04-25 16:21 | 40.61477 | 49.38481 | 15172 ft | 369 kts | 269° |
| 2026-04-25 16:21 | 40.61439 | 49.35084 | 15818 ft | 373 kts | 269° |
| 2026-04-25 16:22 | 40.61400 | 49.31651 | 16448 ft | 377 kts | 269° |
| 2026-04-25 16:22 | 40.61359 | 49.28188 | 17067 ft | 380 kts | 269° |
| 2026-04-25 16:22 | 40.61318 | 49.24735 | 17645 ft | 384 kts | 269° |
| 2026-04-25 16:22 | 40.61275 | 49.21213 | 18206 ft | 388 kts | 269° |
| 2026-04-25 16:23 | 40.61260 | 49.17654 | 18752 ft | 391 kts | 270° |
| 2026-04-25 16:23 | 40.61275 | 49.14053 | 19286 ft | 394 kts | 270° |
| 2026-04-25 16:23 | 40.61296 | 49.10423 | 19801 ft | 398 kts | 270° |
| 2026-04-25 16:23 | 40.61310 | 49.06778 | 20284 ft | 401 kts | 270° |
| 2026-04-25 16:24 | 40.61326 | 49.03093 | 20749 ft | 404 kts | 270° |
| 2026-04-25 16:24 | 40.61344 | 48.99377 | 21211 ft | 407 kts | 270° |
| 2026-04-25 16:24 | 40.61362 | 48.95639 | 21660 ft | 410 kts | 270° |
| 2026-04-25 16:24 | 40.61376 | 48.91886 | 21948 ft | 412 kts | 270° |
| 2026-04-25 16:25 | 40.61390 | 48.88111 | 22000 ft | 414 kts | 270° |
| 2026-04-25 16:25 | 40.61397 | 48.85594 | 21999 ft | 415 kts | 270° |
| 2026-04-25 16:25 | 40.61411 | 48.80551 | 22001 ft | 415 kts | 270° |
| 2026-04-25 16:25 | 40.61420 | 48.76706 | 21998 ft | 415 kts | 270° |
| 2026-04-25 16:26 | 40.61427 | 48.72948 | 22000 ft | 415 kts | 270° |
| 2026-04-25 16:26 | 40.61433 | 48.69159 | 22002 ft | 415 kts | 270° |
| 2026-04-25 16:26 | 40.61438 | 48.65364 | 21997 ft | 414 kts | 270° |
| 2026-04-25 16:26 | 40.61441 | 48.61569 | 21999 ft | 414 kts | 270° |
| 2026-04-25 16:27 | 40.61444 | 48.57777 | 22000 ft | 414 kts | 270° |
| 2026-04-25 16:27 | 40.61445 | 48.53993 | 22000 ft | 415 kts | 270° |
| 2026-04-25 16:27 | 40.61445 | 48.50198 | 22000 ft | 414 kts | 270° |
| 2026-04-25 16:27 | 40.61443 | 48.46415 | 21999 ft | 414 kts | 270° |
| 2026-04-25 16:28 | 40.61441 | 48.42677 | 22002 ft | 414 kts | 270° |
| 2026-04-25 16:28 | 40.61437 | 48.38887 | 21998 ft | 414 kts | 270° |
| 2026-04-25 16:28 | 40.61432 | 48.35095 | 22001 ft | 413 kts | 269° |
| 2026-04-25 16:28 | 40.61404 | 48.31314 | 22002 ft | 413 kts | 270° |
| 2026-04-25 16:29 | 40.61400 | 48.27540 | 22002 ft | 413 kts | 270° |
| 2026-04-25 16:29 | 40.61398 | 48.23758 | 21999 ft | 413 kts | 270° |
| 2026-04-25 16:29 | 40.61393 | 48.19985 | 22004 ft | 412 kts | 270° |
| 2026-04-25 16:29 | 40.61385 | 48.16221 | 21999 ft | 412 kts | 270° |
| 2026-04-25 16:30 | 40.61374 | 48.12448 | 21999 ft | 412 kts | 270° |
| 2026-04-25 16:30 | 40.61362 | 48.09080 | 22003 ft | 412 kts | 270° |
| 2026-04-25 16:30 | 40.61351 | 48.06069 | 21998 ft | 412 kts | 270° |
| 2026-04-25 16:31 | 40.61336 | 48.02298 | 22004 ft | 412 kts | 270° |
| 2026-04-25 16:31 | 40.61319 | 47.98523 | 21998 ft | 412 kts | 270° |
| 2026-04-25 16:31 | 40.61301 | 47.94776 | 21907 ft | 405 kts | 269° |
| 2026-04-25 16:31 | 40.61282 | 47.91131 | 21657 ft | 393 kts | 269° |
| 2026-04-25 16:32 | 40.61263 | 47.87591 | 21407 ft | 381 kts | 269° |
| 2026-04-25 16:32 | 40.61243 | 47.84176 | 20939 ft | 376 kts | 269° |
| 2026-04-25 16:32 | 40.61222 | 47.80749 | 20474 ft | 372 kts | 269° |
| 2026-04-25 16:32 | 40.61201 | 47.77380 | 20163 ft | 367 kts | 269° |
| 2026-04-25 16:33 | 40.61179 | 47.74033 | 19628 ft | 365 kts | 269° |
| 2026-04-25 16:33 | 40.61156 | 47.70704 | 19063 ft | 363 kts | 269° |
| 2026-04-25 16:33 | 40.61132 | 47.67376 | 18403 ft | 365 kts | 269° |
| 2026-04-25 16:33 | 40.61107 | 47.64050 | 17730 ft | 366 kts | 269° |
| 2026-04-25 16:34 | 40.61080 | 47.60693 | 17050 ft | 366 kts | 269° |
| 2026-04-25 16:34 | 40.61053 | 47.57340 | 16377 ft | 366 kts | 269° |
| 2026-04-25 16:34 | 40.61025 | 47.53988 | 15703 ft | 366 kts | 269° |
| 2026-04-25 16:34 | 40.60996 | 47.50639 | 15028 ft | 366 kts | 269° |
| 2026-04-25 16:35 | 40.60967 | 47.47297 | 14349 ft | 365 kts | 269° |
| 2026-04-25 16:35 | 40.60936 | 47.44008 | 13688 ft | 364 kts | 269° |
| 2026-04-25 16:35 | 40.60905 | 47.40685 | 13010 ft | 362 kts | 269° |
| 2026-04-25 16:35 | 40.60872 | 47.37381 | 12340 ft | 361 kts | 269° |
| 2026-04-25 16:36 | 40.60839 | 47.34087 | 11665 ft | 359 kts | 269° |
| 2026-04-25 16:36 | 40.60828 | 47.32978 | 11439 ft | 358 kts | 269° |
| 2026-04-25 16:36 | 40.60770 | 47.27549 | 10301 ft | 355 kts | 269° |
| 2026-04-25 16:36 | 40.60735 | 47.24314 | 9640 ft | 353 kts | 269° |
| 2026-04-25 16:37 | 40.60699 | 47.21107 | 9084 ft | 346 kts | 269° |
| 2026-04-25 16:37 | 40.60721 | 47.18018 | 8861 ft | 330 kts | 273° |
| 2026-04-25 16:37 | 40.60876 | 47.15135 | 8830 ft | 309 kts | 275° |
| 2026-04-25 16:37 | 40.61049 | 47.12474 | 8819 ft | 290 kts | 275° |
| 2026-04-25 16:38 | 40.61225 | 47.09838 | 8825 ft | 281 kts | 275° |
| 2026-04-25 16:38 | 40.61395 | 47.07269 | 8830 ft | 282 kts | 275° |
| 2026-04-25 16:38 | 40.61564 | 47.04696 | 8816 ft | 282 kts | 275° |
| 2026-04-25 16:38 | 40.61732 | 47.02129 | 8406 ft | 281 kts | 275° |
| 2026-04-25 16:39 | 40.61898 | 46.99571 | 7980 ft | 279 kts | 275° |
| 2026-04-25 16:39 | 40.62062 | 46.97035 | 7537 ft | 278 kts | 275° |
| 2026-04-25 16:39 | 40.62223 | 46.94543 | 7108 ft | 276 kts | 275° |
| 2026-04-25 16:39 | 40.62384 | 46.92042 | 6674 ft | 274 kts | 275° |
| 2026-04-25 16:40 | 40.62543 | 46.89549 | 6240 ft | 272 kts | 275° |
| 2026-04-25 16:40 | 40.62701 | 46.87074 | 5908 ft | 269 kts | 275° |
| 2026-04-25 16:40 | 40.62857 | 46.84618 | 5837 ft | 270 kts | 275° |
| 2026-04-25 16:40 | 40.63013 | 46.82159 | 5836 ft | 270 kts | 275° |
| 2026-04-25 16:41 | 40.63169 | 46.79689 | 5837 ft | 271 kts | 275° |
| 2026-04-25 16:41 | 40.63325 | 46.77220 | 5837 ft | 271 kts | 275° |
| 2026-04-25 16:41 | 40.63632 | 46.72315 | 5837 ft | 271 kts | 275° |
| 2026-04-25 16:42 | 40.63786 | 46.69848 | 5836 ft | 271 kts | 275° |
| 2026-04-25 16:42 | 40.63947 | 46.67377 | 5837 ft | 271 kts | 275° |
| 2026-04-25 16:42 | 40.64115 | 46.64904 | 5837 ft | 271 kts | 275° |
| 2026-04-25 16:42 | 40.64285 | 46.62434 | 5759 ft | 271 kts | 275° |
| 2026-04-25 16:43 | 40.64454 | 46.59962 | 5351 ft | 271 kts | 275° |
| 2026-04-25 16:43 | 40.64623 | 46.57496 | 4847 ft | 271 kts | 275° |
| 2026-04-25 16:43 | 40.64791 | 46.55022 | 4320 ft | 272 kts | 275° |
| 2026-04-25 16:43 | 40.64963 | 46.52487 | 3521 ft | 283 kts | 275° |
| 2026-04-25 16:44 | 40.65140 | 46.49885 | 2689 ft | 294 kts | 275° |
| 2026-04-25 16:44 | 40.65364 | 46.47214 | 2103 ft | 293 kts | 283° |
| 2026-04-25 16:44 | 40.66214 | 46.44865 | 1885 ft | 276 kts | 304° |
| 2026-04-25 16:44 | 40.67305 | 46.42962 | 1850 ft | 242 kts | 308° |
| 2026-04-25 16:45 | 40.67969 | 46.41869 | 1829 ft | 221 kts | 308° |
| 2026-04-25 16:45 | 40.69138 | 46.39953 | 1800 ft | 180 kts | 308° |
| 2026-04-25 16:45 | 40.69885 | 46.38721 | 1827 ft | 169 kts | 308° |
| 2026-04-25 16:45 | 40.70610 | 46.37510 | 1818 ft | 168 kts | 306° |
| 2026-04-25 16:46 | 40.71306 | 46.36303 | 1638 ft | 166 kts | 307° |
| 2026-04-25 16:46 | 40.72016 | 46.35101 | 1437 ft | 166 kts | 307° |
| 2026-04-25 16:46 | 40.72748 | 46.33915 | 1260 ft | 167 kts | 308° |
| 2026-04-25 16:46 | 40.72994 | 46.33513 | 1185 ft | 167 kts | 308° |
| 2026-04-25 16:47 | 40.73991 | 46.31837 | 1091 ft | 77 kts | 309° |
| 2026-04-25 16:47 | 40.74251 | 46.31411 | 1087 ft | 51 kts | 308° |
| 2026-04-25 16:47 | 40.74379 | 46.31197 | 1085 ft | 19 kts | 308° |
| 2026-04-25 16:47 | 40.74458 | 46.31062 | 1086 ft | 18 kts | 308° |
| 2026-04-25 16:48 | 40.74536 | 46.30931 | 1086 ft | 18 kts | 308° |
| 2026-04-25 16:48 | 40.74611 | 46.30805 | 1086 ft | 18 kts | 308° |
| 2026-04-25 16:48 | 40.74626 | 46.30703 | 1084 ft | 5 kts | 227° |
| 2026-04-25 16:48 | 40.74596 | 46.30672 | 1084 ft | 6 kts | 218° |
| 2026-04-25 16:49 | 40.74562 | 46.30638 | 1084 ft | 7 kts | 218° |
| 2026-04-25 16:49 | 40.74504 | 46.30579 | 1083 ft | 15 kts | 218° |
| 2026-04-25 16:49 | 40.74400 | 46.30473 | 1083 ft | 22 kts | 218° |
| 2026-04-25 16:49 | 40.74259 | 46.30330 | 1081 ft | 28 kts | 218° |
| 2026-04-25 16:50 | 40.74138 | 46.30206 | 1082 ft | 6 kts | 218° |
| 2026-04-25 16:50 | 40.74085 | 46.30159 | 1083 ft | 9 kts | 196° |
| 2026-04-25 16:50 | 40.74030 | 46.30165 | 1084 ft | 2 kts | 187° |
| 2026-04-25 16:50 | 40.74011 | 46.30174 | 1084 ft | 5 kts | 144° |
| 2026-04-25 16:51 | 40.73996 | 46.30192 | 1084 ft | 0 kts | 128° |
| 2026-04-25 16:51 | 40.73986 | 46.30207 | 1084 ft | 2 kts | 130° |
| 2026-04-25 16:51 | 40.73982 | 46.30214 | 1082 ft | 3 kts | 128° |